createdAt,value
2018-11-26T00:00:46.986Z,134.60
2018-11-26T00:03:15.990Z,136.40
2018-11-26T00:05:44.561Z,146.90
2018-11-26T00:08:13.736Z,134.97
2018-11-26T00:11:01.498Z,127.73
2018-11-26T00:13:30.036Z,121.67
2018-11-26T00:15:58.616Z,139.30
2018-11-26T00:18:27.259Z,144.97
2018-11-26T00:20:55.781Z,131.77
2018-11-26T00:23:24.307Z,131.77
2018-11-26T00:25:52.875Z,127.50
2018-11-26T00:28:21.524Z,125.43
2018-11-26T00:30:50.107Z,133.33
2018-11-26T00:33:18.686Z,124.10
2018-11-26T00:35:47.316Z,126.77
2018-11-26T00:38:15.844Z,124.30
2018-11-26T00:40:44.393Z,121.53
2018-11-26T01:07:04.621Z,119.77
2018-11-26T01:09:33.180Z,106.50
2018-11-26T01:12:01.780Z,123.50
2018-11-26T01:14:30.543Z,118.40
2018-11-26T01:16:59.140Z,117.77
2018-11-26T01:19:28.038Z,117.47
2018-11-26T01:21:56.609Z,106.93
2018-11-26T01:24:31.811Z,103.73
2018-11-26T01:27:00.401Z,105.63
2018-11-26T01:29:28.932Z,108.23
2018-11-26T01:31:57.485Z,103.53
2018-11-26T01:34:26.071Z,98.40
2018-11-26T01:36:54.615Z,102.80
2018-11-26T01:39:23.156Z,100.93
2018-11-26T01:41:51.732Z,105.83
2018-11-26T01:44:20.279Z,102.83
2018-11-26T01:46:48.801Z,106.10
2018-11-26T01:49:17.449Z,98.77
2018-11-26T01:51:45.966Z,96.57
2018-11-26T01:54:14.490Z,101.00
2018-11-26T01:56:43.082Z,96.03
2018-11-26T01:59:11.622Z,102.80
2018-11-26T02:01:40.135Z,100.80
2018-11-26T02:04:08.739Z,103.13
2018-11-26T02:06:37.287Z,104.70
2018-11-26T02:09:06.372Z,95.40
2018-11-26T02:11:34.931Z,105.77
2018-11-26T02:14:03.490Z,104.77
2018-11-26T02:16:32.052Z,106.07
2018-11-26T02:19:00.636Z,73.53
2018-11-26T02:21:29.195Z,79.53
2018-11-26T02:23:57.719Z,79.80
2018-11-26T02:26:26.290Z,88.30
2018-11-26T02:28:54.808Z,87.60
2018-11-26T02:31:23.346Z,85.80
2018-11-26T02:33:52.198Z,81.13
2018-11-26T02:36:20.749Z,83.37
2018-11-26T02:38:49.331Z,86.27
2018-11-26T02:41:17.922Z,89.00
2018-11-26T02:43:46.515Z,90.47
2018-11-26T02:46:15.050Z,75.10
2018-11-26T02:48:43.650Z,86.40
2018-11-26T02:51:12.238Z,80.60
2018-11-26T02:53:40.775Z,83.83
2018-11-26T02:56:09.343Z,86.47
2018-11-26T02:58:37.887Z,82.77
2018-11-26T03:01:06.989Z,85.87
2018-11-26T03:03:35.555Z,88.27
2018-11-26T03:06:04.098Z,77.80
2018-11-26T03:08:32.711Z,82.20
2018-11-26T03:11:01.327Z,81.67
2018-11-26T03:13:29.854Z,84.87
2018-11-26T03:15:58.381Z,84.70
2018-11-26T03:18:26.939Z,86.90
2018-11-26T03:20:55.511Z,75.33
2018-11-26T03:23:24.141Z,81.27
2018-11-26T03:25:52.729Z,78.93
2018-11-26T03:28:21.257Z,83.67
2018-11-26T03:30:49.779Z,74.40
2018-11-26T03:33:18.427Z,74.80
2018-11-26T03:35:46.949Z,80.80
2018-11-26T03:38:17.194Z,86.33
2018-11-26T03:40:45.902Z,93.23
2018-11-26T03:43:14.470Z,88.50
2018-11-26T03:45:43.011Z,89.30
2018-11-26T03:48:11.608Z,89.03
2018-11-26T03:50:40.143Z,88.07
2018-11-26T03:53:08.730Z,84.73
2018-11-26T03:55:37.314Z,89.60
2018-11-26T03:58:05.870Z,110.80
2018-11-26T04:00:34.390Z,130.57
2018-11-26T04:03:02.943Z,131.90
2018-11-26T04:05:31.485Z,118.00
2018-11-26T04:08:00.013Z,144.70
2018-11-26T04:10:28.574Z,150.80
2018-11-26T04:12:57.156Z,141.60
2018-11-26T04:15:25.732Z,115.07
2018-11-26T04:17:54.306Z,125.73
2018-11-26T04:20:22.829Z,99.20
2018-11-26T04:22:51.352Z,97.10
2018-11-26T04:25:19.915Z,98.80
2018-11-26T04:27:48.473Z,123.93
2018-11-26T04:30:17.025Z,126.33
2018-11-26T04:32:45.654Z,124.20
2018-11-26T04:35:14.183Z,119.40
2018-11-26T04:37:42.726Z,122.23
2018-11-26T04:40:11.329Z,151.50
2018-11-26T04:42:39.846Z,121.03
2018-11-26T04:45:09.560Z,137.67
2018-11-26T04:47:38.423Z,145.23
2018-11-26T04:50:09.200Z,136.10
2018-11-26T04:52:37.767Z,156.80
2018-11-26T04:55:06.735Z,134.40
2018-11-26T04:57:35.619Z,147.83
2018-11-26T05:00:04.646Z,145.10
2018-11-26T05:02:33.222Z,157.37
2018-11-26T05:05:01.810Z,149.50
2018-11-26T05:07:30.337Z,153.63
2018-11-26T05:09:58.935Z,136.13
2018-11-26T05:12:27.497Z,137.13
2018-11-26T05:14:56.061Z,134.40
2018-11-26T05:17:24.713Z,129.73
2018-11-26T05:19:53.287Z,123.53
2018-11-26T05:22:21.814Z,117.80
2018-11-26T05:24:50.377Z,121.67
2018-11-26T05:27:18.934Z,124.20
2018-11-26T05:29:47.594Z,117.53
2018-11-26T05:32:16.163Z,133.23
2018-11-26T05:34:44.683Z,122.33
2018-11-26T05:37:13.239Z,121.03
2018-11-26T05:39:41.812Z,117.93
2018-11-26T05:42:10.399Z,119.07
2018-11-26T05:44:39.014Z,122.37
2018-11-26T05:47:07.622Z,119.27
2018-11-26T05:49:36.165Z,107.63
2018-11-26T05:52:04.694Z,115.60
2018-11-26T05:54:33.275Z,116.73
2018-11-26T05:57:01.861Z,113.40
2018-11-26T05:59:30.393Z,116.40
2018-11-26T06:01:58.992Z,107.60
2018-11-26T06:04:27.591Z,98.83
2018-11-26T06:06:56.115Z,107.00
2018-11-26T06:09:24.726Z,115.07
2018-11-26T06:11:53.246Z,96.43
2018-11-26T06:14:21.803Z,108.77
2018-11-26T06:16:53.805Z,103.87
2018-11-26T06:19:18.962Z,89.03
2018-11-26T06:21:47.833Z,124.00
2018-11-26T06:24:16.397Z,88.30
2018-11-26T06:26:44.927Z,90.47
2018-11-26T06:29:13.446Z,99.63
2018-11-26T06:31:42.052Z,92.23
2018-11-26T06:34:10.570Z,87.93
2018-11-26T06:36:39.343Z,96.00
2018-11-26T06:39:09.581Z,88.10
2018-11-26T06:41:38.375Z,222.33
2018-11-26T06:44:07.614Z,87.10
2018-11-26T06:46:36.162Z,79.50
2018-11-26T06:49:04.706Z,78.07
2018-11-26T06:51:33.254Z,82.90
2018-11-26T06:54:01.851Z,76.33
2018-11-26T06:56:30.388Z,74.13
2018-11-26T06:58:59.030Z,79.27
2018-11-26T07:01:27.601Z,82.20
2018-11-26T07:03:56.138Z,77.77
2018-11-26T07:06:24.663Z,84.33
2018-11-26T07:08:53.596Z,77.60
2018-11-26T07:11:22.131Z,78.87
2018-11-26T07:13:50.698Z,70.33
2018-11-26T07:16:19.322Z,70.67
2018-11-26T07:18:47.846Z,74.53
2018-11-26T07:21:16.446Z,70.90
2018-11-26T07:23:45.013Z,74.73
2018-11-26T07:26:13.622Z,73.70
2018-11-26T07:28:42.139Z,80.83
2018-11-26T07:31:10.707Z,118.27
2018-11-26T07:33:39.228Z,85.30
2018-11-26T07:36:11.443Z,137.97
2018-11-26T07:38:36.769Z,120.03
2018-11-26T07:41:05.564Z,109.70
2018-11-26T07:43:34.134Z,95.97
2018-11-26T07:46:02.782Z,97.47
2018-11-26T07:48:31.303Z,109.37
2018-11-26T07:50:59.850Z,132.60
2018-11-26T07:53:28.434Z,124.90
2018-11-26T07:55:57.010Z,137.13
2018-11-26T07:58:25.562Z,101.23
2018-11-26T08:00:54.255Z,152.20
2018-11-26T08:03:22.838Z,113.03
2018-11-26T08:05:51.360Z,126.33
2018-11-26T08:08:19.940Z,117.67
2018-11-26T08:10:48.466Z,108.50
2018-11-26T08:13:17.031Z,139.70
2018-11-26T08:15:45.647Z,230.63
2018-11-26T08:18:14.210Z,314.30
2018-11-26T08:20:42.738Z,180.87
2018-11-26T08:23:11.286Z,114.10
2018-11-26T08:25:39.862Z,108.17
2018-11-26T08:28:08.483Z,74.17
2018-11-26T08:30:37.021Z,87.77
2018-11-26T08:33:06.367Z,89.43
2018-11-26T08:35:35.002Z,84.07
2018-11-26T08:38:13.659Z,84.37
2018-11-26T08:40:43.228Z,83.67
2018-11-26T08:43:17.065Z,87.47
2018-11-26T08:45:53.538Z,90.60
2018-11-26T08:48:31.273Z,104.43
2018-11-26T08:51:01.246Z,96.00
2018-11-26T08:53:29.916Z,107.43
2018-11-26T08:55:58.692Z,111.70
2018-11-26T08:58:27.281Z,119.87
2018-11-26T09:01:01.471Z,132.77
2018-11-26T09:03:36.038Z,108.70
2018-11-26T09:06:05.478Z,102.13
2018-11-26T09:08:35.288Z,80.70
2018-11-26T09:11:04.808Z,93.50
2018-11-26T09:13:33.329Z,69.37
2018-11-26T09:16:01.863Z,73.37
2018-11-26T09:18:30.435Z,72.73
2018-11-26T09:20:59.013Z,77.87
2018-11-26T09:23:27.574Z,82.43
2018-11-26T09:25:56.230Z,77.40
2018-11-26T09:28:24.925Z,74.50
2018-11-26T09:30:53.507Z,79.80
2018-11-26T09:33:22.234Z,88.87
2018-11-26T09:35:50.762Z,117.47
2018-11-26T09:38:19.340Z,112.60
2018-11-26T09:40:47.922Z,95.10
2018-11-26T09:43:16.442Z,93.73
2018-11-26T09:45:44.992Z,105.40
2018-11-26T09:48:13.532Z,142.47
2018-11-26T09:50:42.399Z,91.33
2018-11-26T09:53:10.940Z,90.93
2018-11-26T09:55:39.458Z,111.13
2018-11-26T09:58:08.003Z,94.83
2018-11-26T10:00:36.526Z,75.70
2018-11-26T10:03:05.480Z,72.30
2018-11-26T10:05:34.583Z,65.97
2018-11-26T10:08:03.102Z,71.90
2018-11-26T10:10:31.667Z,64.87
2018-11-26T10:13:00.194Z,68.53
2018-11-26T10:15:28.803Z,63.43
2018-11-26T10:17:57.318Z,67.63
2018-11-26T10:20:25.844Z,70.50
2018-11-26T10:22:54.692Z,57.80
2018-11-26T10:25:23.777Z,65.90
2018-11-26T10:27:52.309Z,64.17
2018-11-26T10:30:23.372Z,68.13
2018-11-26T10:32:52.165Z,64.27
2018-11-26T10:35:21.170Z,64.77
2018-11-26T10:37:49.845Z,68.20
2018-11-26T10:40:25.531Z,57.27
2018-11-26T10:42:54.130Z,70.30
2018-11-26T10:45:23.592Z,57.40
2018-11-26T10:47:52.148Z,62.70
2018-11-26T10:50:23.182Z,55.90
2018-11-26T10:52:55.054Z,51.37
2018-11-26T10:55:26.350Z,60.10
2018-11-26T10:57:54.829Z,55.37
2018-11-26T11:00:28.766Z,60.27
2018-11-26T11:02:57.770Z,53.80
2018-11-26T11:05:26.301Z,53.80
2018-11-26T11:07:55.017Z,51.13
2018-11-26T11:10:25.418Z,49.13
2018-11-26T11:12:53.962Z,48.13
2018-11-26T11:15:22.874Z,42.67
2018-11-26T11:17:51.377Z,40.53
2018-11-26T11:20:21.060Z,43.77
2018-11-26T11:22:49.595Z,42.70
2018-11-26T11:25:18.764Z,40.77
2018-11-26T11:27:47.840Z,54.77
2018-11-26T11:30:21.739Z,44.57
2018-11-26T11:32:50.303Z,42.00
2018-11-26T11:35:19.036Z,46.40
2018-11-26T11:37:48.860Z,44.53
2018-11-26T11:40:21.016Z,46.93
2018-11-26T11:42:49.571Z,48.40
2018-11-26T11:45:18.343Z,47.33
2018-11-26T11:47:46.894Z,43.30
2018-11-26T11:50:16.862Z,38.70
2018-11-26T11:52:45.611Z,47.70
2018-11-26T11:55:17.047Z,32.40
2018-11-26T11:57:45.582Z,35.47
2018-11-26T12:00:18.852Z,50.97
2018-11-26T12:02:47.375Z,54.40
2018-11-26T12:05:16.333Z,44.00
2018-11-26T12:07:45.007Z,36.93
2018-11-26T12:10:13.937Z,47.73
2018-11-26T12:12:42.471Z,65.10
2018-11-26T12:15:12.423Z,46.90
2018-11-26T12:17:41.186Z,60.33
2018-11-26T12:20:11.127Z,38.53
2018-11-26T12:22:39.760Z,47.87
2018-11-26T12:25:10.192Z,47.27
2018-11-26T12:27:38.718Z,69.00
2018-11-26T12:30:11.515Z,40.60
2018-11-26T12:32:40.050Z,41.37
2018-11-26T12:35:08.599Z,37.97
2018-11-26T12:37:37.139Z,33.17
2018-11-26T12:40:08.416Z,36.43
2018-11-26T12:42:37.052Z,37.43
2018-11-26T12:45:15.183Z,89.63
2018-11-26T12:47:43.762Z,42.47
2018-11-26T12:50:12.574Z,46.27
2018-11-26T12:52:41.146Z,47.40
2018-11-26T12:55:12.062Z,37.27
2018-11-26T12:57:41.642Z,66.37
2018-11-26T13:00:13.533Z,48.00
2018-11-26T13:02:42.086Z,76.77
2018-11-26T13:05:15.103Z,41.30
2018-11-26T13:07:43.673Z,95.27
2018-11-26T13:10:14.127Z,43.23
2018-11-26T13:12:42.767Z,42.70
2018-11-26T13:15:15.432Z,44.73
2018-11-26T13:17:44.016Z,50.73
2018-11-26T13:20:14.812Z,48.10
2018-11-26T13:22:43.459Z,110.97
2018-11-26T13:25:13.242Z,70.50
2018-11-26T13:27:43.535Z,49.27
2018-11-26T13:30:14.504Z,56.73
2018-11-26T13:32:43.868Z,95.63
2018-11-26T13:35:13.497Z,51.27
2018-11-26T13:37:42.059Z,62.17
2018-11-26T13:40:11.907Z,65.43
2018-11-26T13:42:40.551Z,72.50
2018-11-26T13:45:10.863Z,74.20
2018-11-26T13:47:39.523Z,115.63
2018-11-26T13:50:11.795Z,115.23
2018-11-26T13:52:40.311Z,104.30
2018-11-26T13:55:10.804Z,147.90
2018-11-26T13:57:39.376Z,58.57
2018-11-26T14:00:11.328Z,132.93
2018-11-26T14:02:39.874Z,124.90
2018-11-26T14:05:10.803Z,79.43
2018-11-26T14:07:39.348Z,106.17
2018-11-26T14:10:11.275Z,100.13
2018-11-26T14:12:40.111Z,136.97
2018-11-26T14:15:10.520Z,84.90
2018-11-26T14:17:39.091Z,103.73
2018-11-26T14:20:11.238Z,100.83
2018-11-26T14:22:39.800Z,155.80
2018-11-26T14:25:11.924Z,63.43
2018-11-26T14:27:41.054Z,93.67
2018-11-26T14:30:16.698Z,377.80
2018-11-26T14:32:45.254Z,108.87
2018-11-26T14:35:13.771Z,211.77
2018-11-26T14:37:42.368Z,200.97
2018-11-26T14:40:13.443Z,112.93
2018-11-26T14:42:41.998Z,222.40
2018-11-26T14:45:12.346Z,144.30
2018-11-26T14:47:40.907Z,98.80
2018-11-26T14:50:12.408Z,95.37
2018-11-26T14:52:41.340Z,118.90
2018-11-26T14:55:14.994Z,152.73
2018-11-26T14:57:44.112Z,141.63
2018-11-26T15:00:16.529Z,162.03
2018-11-26T15:02:45.238Z,89.87
2018-11-26T15:05:14.019Z,49.83
2018-11-26T15:07:42.535Z,57.80
2018-11-26T15:10:13.275Z,95.93
2018-11-26T15:12:41.886Z,67.77
2018-11-26T15:15:12.809Z,94.10
2018-11-26T15:17:42.252Z,124.53
2018-11-26T15:20:20.257Z,79.63
2018-11-26T15:22:49.166Z,143.90
2018-11-26T15:25:20.669Z,63.70
2018-11-26T15:27:49.284Z,114.40
2018-11-26T15:30:19.367Z,169.50
2018-11-26T15:32:48.029Z,140.43
2018-11-26T15:35:19.809Z,75.13
2018-11-26T15:37:48.414Z,47.77
2018-11-26T15:40:18.108Z,70.33
2018-11-26T15:42:46.650Z,86.80
2018-11-26T15:45:19.157Z,59.53
2018-11-26T15:47:48.232Z,63.43
2018-11-26T15:50:16.766Z,73.50
2018-11-26T15:52:45.319Z,56.43
2018-11-26T15:55:14.987Z,39.63
2018-11-26T15:57:43.528Z,72.63
2018-11-26T16:00:16.133Z,61.80
2018-11-26T16:02:45.047Z,222.33
2018-11-26T16:05:19.135Z,192.47
2018-11-26T16:07:48.300Z,161.20
2018-11-26T16:10:16.931Z,77.20
2018-11-26T16:12:46.741Z,61.20
2018-11-26T16:15:18.012Z,75.47
2018-11-26T16:17:46.552Z,55.10
2018-11-26T16:20:17.441Z,52.00
2018-11-26T16:22:45.968Z,49.00
2018-11-26T16:25:15.980Z,50.23
2018-11-26T16:27:44.618Z,58.23
2018-11-26T16:30:14.267Z,68.50
2018-11-26T16:32:44.117Z,52.27
2018-11-26T16:35:14.263Z,60.57
2018-11-26T16:37:42.790Z,61.53
2018-11-26T16:40:14.890Z,50.33
2018-11-26T16:42:43.439Z,75.37
2018-11-26T16:45:13.511Z,71.67
2018-11-26T16:47:42.093Z,44.63
2018-11-26T16:50:12.374Z,40.90
2018-11-26T16:52:40.959Z,44.40
2018-11-26T16:55:12.617Z,52.53
2018-11-26T16:57:41.410Z,50.23
2018-11-26T17:00:20.056Z,37.90
2018-11-26T17:02:49.664Z,39.00
2018-11-26T17:05:22.638Z,42.43
2018-11-26T17:07:51.257Z,47.70
2018-11-26T17:10:20.010Z,51.63
2018-11-26T17:12:48.514Z,82.77
2018-11-26T17:15:17.886Z,76.10
2018-11-26T17:17:46.672Z,71.27
2018-11-26T17:20:16.175Z,48.53
2018-11-26T17:22:44.811Z,45.97
2018-11-26T17:25:14.591Z,74.23
2018-11-26T17:27:43.731Z,53.83
2018-11-26T17:30:22.526Z,69.43
2018-11-26T17:32:56.114Z,55.47
2018-11-26T17:35:24.748Z,63.30
2018-11-26T17:37:53.266Z,50.77
2018-11-26T17:40:23.784Z,69.67
2018-11-26T17:42:52.753Z,118.70
2018-11-26T17:45:22.339Z,65.00
2018-11-26T17:47:52.201Z,79.17
2018-11-26T17:50:39.065Z,91.10
2018-11-26T17:53:09.902Z,57.43
2018-11-26T17:55:56.654Z,66.60
2018-11-26T17:58:26.627Z,105.60
2018-11-26T18:01:04.545Z,74.43
2018-11-26T18:03:33.131Z,81.13
2018-11-26T18:06:01.669Z,62.70
2018-11-26T18:08:30.259Z,62.53
2018-11-26T18:10:58.918Z,52.47
2018-11-26T18:13:27.447Z,64.60
2018-11-26T18:15:55.975Z,52.27
2018-11-26T18:18:24.518Z,77.43
2018-11-26T18:20:53.047Z,69.33
2018-11-26T18:23:21.641Z,51.90
2018-11-26T18:25:50.172Z,51.50
2018-11-26T18:28:18.784Z,58.60
2018-11-26T18:30:49.611Z,58.97
2018-11-26T18:33:18.201Z,70.77
2018-11-26T18:35:48.540Z,109.23
2018-11-26T18:38:17.502Z,87.70
2018-11-26T18:40:47.680Z,74.07
2018-11-26T18:43:16.542Z,78.63
2018-11-26T18:45:45.295Z,70.33
2018-11-26T18:48:14.912Z,68.07
2018-11-26T18:50:43.819Z,99.77
2018-11-26T18:53:12.733Z,99.33
2018-11-26T18:55:42.300Z,76.17
2018-11-26T18:58:10.868Z,101.47
2018-11-26T19:00:44.726Z,102.03
2018-11-26T19:03:17.739Z,120.20
2018-11-26T19:05:46.831Z,66.10
2018-11-26T19:08:15.641Z,139.27
2018-11-26T19:10:44.552Z,140.30
2018-11-26T19:13:15.868Z,70.67
2018-11-26T19:15:46.187Z,100.73
2018-11-26T19:18:21.655Z,98.47
2018-11-26T19:20:50.244Z,116.40
2018-11-26T19:23:18.804Z,147.50
2018-11-26T19:25:48.451Z,94.90
2018-11-26T19:28:20.504Z,51.17
2018-11-26T19:30:45.572Z,64.07
2018-11-26T19:33:14.143Z,53.50
2018-11-26T19:35:42.692Z,51.60
2018-11-26T19:38:11.245Z,63.03
2018-11-26T19:40:40.682Z,79.57
2018-11-26T19:43:09.954Z,55.67
2018-11-26T19:45:39.060Z,55.70
2018-11-26T19:48:08.588Z,78.07
2018-11-26T19:50:37.216Z,63.53
2018-11-26T19:53:08.212Z,62.33
2018-11-26T19:55:36.862Z,53.17
2018-11-26T19:58:06.561Z,55.40
2018-11-26T20:00:36.744Z,64.43
2018-11-26T20:03:18.915Z,51.47
2018-11-26T20:05:56.749Z,48.93
2018-11-26T20:08:25.478Z,59.90
2018-11-26T20:10:54.133Z,68.97
2018-11-26T20:13:22.789Z,67.20
2018-11-26T20:15:52.839Z,52.10
2018-11-26T20:18:20.294Z,47.00
2018-11-26T20:20:48.860Z,42.50
2018-11-26T20:23:17.467Z,42.20
2018-11-26T20:25:46.282Z,56.20
2018-11-26T20:28:14.711Z,42.60
2018-11-26T20:30:43.302Z,39.80
2018-11-26T20:33:11.814Z,40.77
2018-11-26T20:35:40.361Z,42.13
2018-11-26T20:38:10.444Z,43.40
2018-11-26T20:40:39.027Z,57.97
2018-11-26T20:43:09.575Z,55.70
2018-11-26T20:45:39.383Z,45.23
2018-11-26T20:48:08.700Z,39.97
2018-11-26T20:50:37.379Z,47.87
2018-11-26T20:53:06.064Z,37.10
2018-11-26T20:55:34.631Z,34.23
2018-11-26T20:58:09.544Z,39.00
2018-11-26T21:00:38.155Z,78.07
2018-11-26T21:03:09.320Z,38.63
2018-11-26T21:05:38.275Z,48.37
2018-11-26T21:08:06.855Z,45.77
2018-11-26T21:10:35.439Z,48.50
2018-11-26T21:13:04.040Z,91.00
2018-11-26T21:15:32.738Z,56.77
2018-11-26T21:18:03.559Z,41.40
2018-11-26T21:20:36.923Z,29.80
2018-11-26T21:23:08.283Z,38.10
2018-11-26T21:25:36.812Z,39.73
2018-11-26T21:28:06.152Z,36.70
2018-11-26T21:30:34.727Z,32.27
2018-11-26T21:33:03.317Z,40.27
2018-11-26T21:35:31.949Z,30.90
2018-11-26T21:38:00.506Z,74.80
2018-11-26T21:40:29.025Z,37.77
2018-11-26T21:42:57.608Z,37.10
2018-11-26T21:45:28.143Z,32.87
2018-11-26T21:47:56.700Z,45.17
2018-11-26T21:50:25.270Z,27.57
2018-11-26T21:52:53.803Z,34.67
2018-11-26T21:58:03.884Z,29.40
2018-11-26T22:00:32.962Z,43.23
2018-11-26T22:03:07.420Z,35.53
2018-11-26T22:05:36.691Z,27.83
2018-11-26T22:08:05.468Z,32.40
2018-11-26T22:10:34.032Z,34.47
2018-11-26T22:13:02.559Z,29.87
2018-11-26T22:15:31.083Z,31.50
2018-11-26T22:17:59.771Z,39.20
2018-11-26T22:20:29.608Z,24.80
2018-11-26T22:22:58.189Z,20.17
2018-11-26T22:25:26.755Z,24.70
2018-11-26T22:27:55.679Z,24.67
2018-11-26T22:30:32.642Z,24.97
2018-11-26T22:33:01.195Z,24.67
2018-11-26T22:35:29.760Z,25.23
2018-11-26T22:37:58.400Z,22.30
2018-11-26T22:40:27.305Z,25.30
2018-11-26T22:42:55.901Z,23.13
2018-11-26T22:45:28.331Z,27.83
2018-11-26T22:48:01.335Z,33.70
2018-11-26T22:50:29.883Z,27.77
2018-11-26T22:52:58.392Z,31.03
2018-11-26T22:55:26.908Z,34.67
2018-11-26T22:57:55.475Z,36.13
2018-11-26T23:00:27.386Z,40.87
2018-11-26T23:02:58.925Z,33.13
2018-11-26T23:05:27.620Z,27.13
2018-11-26T23:07:56.153Z,28.03
2018-11-26T23:10:24.738Z,26.40
2018-11-26T23:12:53.271Z,28.57
2018-11-26T23:15:22.053Z,26.60
2018-11-26T23:17:51.297Z,27.07
2018-11-26T23:20:21.401Z,27.43
2018-11-26T23:22:49.936Z,25.37
2018-11-26T23:25:19.863Z,33.80
2018-11-26T23:27:48.410Z,28.70
2018-11-26T23:30:20.951Z,33.83
2018-11-26T23:32:50.779Z,26.30
2018-11-26T23:35:19.383Z,25.17
2018-11-26T23:37:48.042Z,30.47
2018-11-26T23:40:16.669Z,34.03
2018-11-26T23:42:45.270Z,33.10
2018-11-26T23:45:17.928Z,29.70
2018-11-26T23:47:46.823Z,31.53
2018-11-26T23:50:16.150Z,25.37
2018-11-26T23:52:45.178Z,30.20
2018-11-26T23:55:15.725Z,31.83
2018-11-26T23:57:44.335Z,29.50
